createdAt,value
2022-09-26T00:01:22.229Z,197.35
2022-09-26T00:03:52.156Z,204.43
2022-09-26T00:06:21.425Z,205.95
2022-09-26T00:08:50.408Z,201.23
2022-09-26T00:11:20.723Z,202.30
2022-09-26T00:13:48.929Z,207.18
2022-09-26T00:16:18.182Z,201.82
2022-09-26T00:18:49.981Z,200.48
2022-09-26T00:21:18.448Z,207.65
2022-09-26T00:23:46.540Z,202.55
2022-09-26T00:26:15.545Z,208.48
2022-09-26T00:28:43.669Z,204.65
2022-09-26T00:31:13.466Z,205.02
2022-09-26T00:33:43.103Z,202.80
2022-09-26T00:36:11.231Z,202.80
2022-09-26T00:38:39.365Z,209.77
2022-09-26T00:41:08.277Z,210.20
2022-09-26T00:43:37.545Z,204.23
2022-09-26T00:46:22.770Z,201.52
2022-09-26T00:48:55.794Z,204.63
2022-09-26T00:51:24.185Z,206.18
2022-09-26T00:53:53.449Z,199.60
2022-09-26T00:56:24.132Z,199.32
2022-09-26T00:58:54.882Z,209.27
2022-09-26T01:01:23.281Z,200.38
2022-09-26T01:03:53.053Z,203.50
2022-09-26T01:06:21.545Z,201.85
2022-09-26T01:08:52.670Z,207.88
2022-09-26T01:11:21.591Z,199.93
2022-09-26T01:13:50.504Z,200.48
2022-09-26T01:16:18.687Z,197.40
2022-09-26T01:18:47.808Z,198.35
2022-09-26T01:21:42.224Z,197.95
2022-09-26T01:24:40.201Z,198.50
2022-09-26T01:27:22.528Z,202.80
2022-09-26T01:30:10.273Z,196.15
2022-09-26T01:33:04.331Z,193.15
2022-09-26T01:35:51.554Z,196.50
2022-09-26T01:38:24.977Z,196.15
2022-09-26T01:41:05.864Z,200.48
2022-09-26T01:43:37.137Z,193.57
2022-09-26T01:46:13.092Z,201.05
2022-09-26T01:48:45.592Z,195.93
2022-09-26T01:51:17.035Z,199.45
2022-09-26T01:53:48.404Z,197.18
2022-09-26T01:56:19.887Z,202.68
2022-09-26T01:58:51.526Z,197.27
2022-09-26T02:01:22.893Z,202.00
2022-09-26T02:03:54.245Z,201.55
2022-09-26T02:06:24.837Z,203.00
2022-09-26T02:08:55.383Z,202.70
2022-09-26T02:11:24.670Z,193.45
2022-09-26T02:13:57.405Z,204.70
2022-09-26T02:16:28.746Z,199.95
2022-09-26T02:18:59.454Z,198.02
2022-09-26T02:21:27.201Z,193.75
2022-09-26T02:23:55.145Z,199.07
2022-09-26T02:26:24.247Z,199.52
2022-09-26T02:28:52.611Z,202.32
2022-09-26T02:31:24.508Z,191.90
2022-09-26T02:33:54.501Z,198.07
2022-09-26T02:36:22.777Z,192.27
2022-09-26T02:38:51.047Z,192.35
2022-09-26T02:41:24.050Z,194.07
2022-09-26T02:44:02.905Z,194.70
2022-09-26T02:46:44.978Z,191.93
2022-09-26T02:49:26.172Z,194.18
2022-09-26T02:52:10.507Z,193.18
2022-09-26T02:54:44.165Z,190.85
2022-09-26T02:57:23.023Z,186.43
2022-09-26T02:59:57.767Z,189.48
2022-09-26T03:02:29.225Z,191.55
2022-09-26T03:05:04.146Z,197.02
2022-09-26T03:07:35.632Z,195.98
2022-09-26T03:10:05.432Z,192.52
2022-09-26T03:12:34.917Z,199.10
2022-09-26T03:15:04.759Z,198.27
2022-09-26T03:17:34.860Z,206.43
2022-09-26T03:20:07.012Z,194.60
2022-09-26T03:22:35.606Z,195.63
2022-09-26T03:25:04.376Z,196.50
2022-09-26T03:27:33.321Z,201.02
2022-09-26T03:30:01.446Z,190.40
2022-09-26T03:32:29.773Z,195.02
2022-09-26T03:34:57.957Z,197.52
2022-09-26T03:37:27.437Z,189.68
2022-09-26T03:39:55.449Z,199.40
2022-09-26T03:42:24.567Z,193.68
2022-09-26T03:44:53.439Z,197.30
2022-09-26T03:47:21.469Z,192.38
2022-09-26T03:49:49.229Z,194.68
2022-09-26T03:52:17.155Z,198.15
2022-09-26T03:54:46.910Z,196.80
2022-09-26T03:57:15.506Z,197.30
2022-09-26T03:59:43.367Z,199.30
2022-09-26T04:02:11.247Z,198.05
2022-09-26T04:04:39.125Z,194.65
2022-09-26T04:07:07.185Z,196.05
2022-09-26T04:09:35.036Z,190.77
2022-09-26T04:12:04.654Z,191.27
2022-09-26T04:14:32.461Z,188.55
2022-09-26T04:17:00.493Z,191.10
2022-09-26T04:19:28.560Z,196.27
2022-09-26T04:21:56.987Z,196.65
2022-09-26T04:24:25.002Z,190.75
2022-09-26T04:26:52.972Z,190.30
2022-09-26T04:29:22.586Z,190.35
2022-09-26T04:31:51.526Z,189.68
2022-09-26T04:34:22.377Z,190.75
2022-09-26T04:36:54.274Z,201.13
2022-09-26T04:39:22.363Z,192.05
2022-09-26T04:41:50.234Z,191.10
2022-09-26T04:44:18.271Z,195.18
2022-09-26T04:46:48.066Z,197.65
2022-09-26T04:49:16.185Z,193.48
2022-09-26T04:51:44.827Z,194.35
2022-09-26T04:54:12.651Z,192.02
2022-09-26T04:56:40.545Z,151.07
2022-09-26T04:59:08.402Z,146.48
2022-09-26T05:01:36.256Z,137.25
2022-09-26T05:04:05.757Z,113.72
2022-09-26T05:06:33.725Z,118.88
2022-09-26T05:09:01.979Z,108.38
2022-09-26T05:11:29.963Z,109.43
2022-09-26T05:13:57.790Z,119.30
2022-09-26T05:16:28.290Z,121.00
2022-09-26T05:18:56.744Z,129.45
2022-09-26T05:21:26.244Z,112.25
2022-09-26T05:24:11.399Z,117.88
2022-09-26T05:26:44.568Z,66.55
2022-09-26T05:29:12.595Z,95.50
2022-09-26T05:31:41.175Z,79.78
2022-09-26T05:34:14.358Z,58.80
2022-09-26T05:36:47.897Z,92.30
2022-09-26T05:39:32.868Z,105.85
2022-09-26T05:42:01.077Z,87.88
2022-09-26T05:44:30.881Z,73.90
2022-09-26T05:46:59.260Z,23.45
2022-09-26T05:49:27.801Z,17.73
2022-09-26T05:51:57.657Z,52.55
2022-09-26T05:54:25.550Z,60.90
2022-09-26T05:56:53.420Z,48.83
2022-09-26T05:59:21.219Z,62.63
2022-09-26T06:01:49.419Z,58.28
2022-09-26T06:04:17.357Z,34.35
2022-09-26T06:06:45.375Z,39.67
2022-09-26T06:09:15.042Z,34.50
2022-09-26T06:11:43.061Z,14.98
2022-09-26T06:14:11.176Z,10.90
2022-09-26T06:16:39.139Z,10.93
2022-09-26T06:19:07.101Z,10.27
2022-09-26T06:21:34.974Z,11.00
2022-09-26T06:24:03.308Z,10.50
2022-09-26T06:26:32.797Z,10.93
2022-09-26T06:29:01.158Z,9.38
2022-09-26T06:31:29.986Z,8.05
2022-09-26T06:33:59.658Z,10.23
2022-09-26T06:36:27.653Z,10.48
2022-09-26T06:38:56.180Z,10.82
2022-09-26T06:41:26.046Z,10.48
2022-09-26T06:43:55.706Z,10.65
2022-09-26T06:46:23.631Z,11.00
2022-09-26T06:48:51.568Z,10.25
2022-09-26T06:51:20.145Z,11.10
2022-09-26T06:53:48.064Z,12.05
2022-09-26T06:56:16.049Z,15.80
2022-09-26T06:58:43.904Z,17.90
2022-09-26T07:01:14.538Z,18.30
2022-09-26T07:03:45.632Z,16.30
2022-09-26T07:06:14.283Z,9.65
2022-09-26T07:11:41.964Z,9.52
2022-09-26T07:14:19.680Z,9.23
2022-09-26T07:16:49.703Z,11.60
2022-09-26T07:19:18.688Z,10.32
2022-09-26T07:21:47.013Z,16.08
2022-09-26T07:24:15.331Z,7.32
2022-09-26T07:26:43.343Z,9.35
2022-09-26T07:29:12.444Z,7.75
2022-09-26T07:31:40.609Z,11.80
2022-09-26T07:34:15.825Z,73.93
2022-09-26T07:36:47.484Z,84.57
2022-09-26T07:39:16.104Z,91.70
2022-09-26T07:41:46.006Z,71.85
2022-09-26T07:47:19.653Z,63.60
2022-09-26T07:50:06.689Z,90.35
2022-09-26T07:52:36.002Z,102.15
2022-09-26T07:55:03.900Z,116.45
2022-09-26T07:57:35.595Z,103.38
2022-09-26T08:00:05.876Z,86.82
2022-09-26T08:02:34.225Z,81.47
2022-09-26T08:05:04.941Z,32.33
2022-09-26T08:07:33.615Z,32.63
2022-09-26T08:10:03.096Z,27.17
2022-09-26T08:12:36.518Z,10.88
2022-09-26T08:15:06.269Z,48.22
2022-09-26T08:17:34.681Z,94.70
2022-09-26T08:20:04.011Z,105.28
2022-09-26T08:22:31.852Z,110.07
2022-09-26T08:25:00.302Z,111.47
2022-09-26T08:27:28.536Z,108.30
2022-09-26T08:29:57.014Z,119.32
2022-09-26T08:32:24.881Z,119.53
2022-09-26T08:34:53.120Z,108.47
2022-09-26T08:37:27.848Z,108.45
2022-09-26T08:39:55.901Z,107.05
2022-09-26T08:42:35.737Z,72.18
2022-09-26T08:45:47.774Z,88.93
2022-09-26T08:48:28.568Z,83.75
2022-09-26T08:51:01.464Z,67.38
2022-09-26T08:53:38.658Z,96.38
2022-09-26T08:56:15.497Z,70.10
2022-09-26T08:58:45.816Z,101.18
2022-09-26T09:01:18.502Z,97.30
2022-09-26T09:03:51.869Z,90.25
2022-09-26T09:06:20.341Z,88.65
2022-09-26T09:08:51.835Z,59.80
2022-09-26T09:11:30.962Z,96.40
2022-09-26T09:14:06.726Z,46.35
2022-09-26T09:16:51.639Z,68.55
2022-09-26T09:19:24.892Z,79.63
2022-09-26T09:22:04.723Z,107.13
2022-09-26T09:24:46.616Z,93.53
2022-09-26T09:30:18.878Z,71.93
2022-09-26T09:32:52.056Z,65.68
2022-09-26T09:35:22.121Z,69.05
2022-09-26T09:37:52.335Z,72.57
2022-09-26T09:40:28.106Z,71.15
2022-09-26T09:42:59.134Z,105.00
2022-09-26T09:45:31.279Z,59.15
2022-09-26T09:47:59.293Z,103.15
2022-09-26T09:50:37.208Z,123.18
2022-09-26T09:53:14.627Z,102.13
2022-09-26T09:55:52.335Z,8.85
2022-09-26T09:58:30.037Z,35.58
2022-09-26T10:01:02.826Z,122.13
2022-09-26T10:03:37.870Z,117.43
2022-09-26T10:06:44.545Z,148.77
2022-09-26T10:08:57.805Z,141.90
2022-09-26T10:11:51.882Z,85.75
2022-09-26T10:14:28.775Z,114.47
2022-09-26T10:17:18.601Z,74.30
2022-09-26T10:19:46.380Z,106.88
2022-09-26T10:22:20.731Z,88.45
2022-09-26T10:24:49.337Z,99.38
2022-09-26T10:27:24.278Z,89.88
2022-09-26T10:29:57.705Z,88.35
2022-09-26T10:32:25.690Z,86.28
2022-09-26T10:35:19.532Z,71.32
2022-09-26T10:37:50.882Z,83.68
2022-09-26T10:40:42.520Z,118.07
2022-09-26T10:43:23.405Z,118.93
2022-09-26T10:45:54.885Z,82.00
2022-09-26T10:48:27.725Z,93.65
2022-09-26T10:51:00.586Z,137.18
2022-09-26T10:53:33.558Z,143.48
2022-09-26T10:56:03.583Z,151.40
2022-09-26T10:58:36.985Z,138.10
2022-09-26T11:01:04.869Z,155.18
2022-09-26T11:03:36.156Z,144.25
2022-09-26T11:06:04.156Z,115.78
2022-09-26T11:08:32.930Z,146.75
2022-09-26T11:11:04.251Z,136.63
2022-09-26T11:13:41.318Z,69.53
2022-09-26T11:16:11.220Z,103.28
2022-09-26T11:18:44.553Z,115.40
2022-09-26T11:21:28.154Z,133.15
2022-09-26T11:24:03.105Z,91.20
2022-09-26T11:26:36.658Z,75.85
2022-09-26T11:29:11.251Z,138.65
2022-09-26T11:31:42.950Z,64.45
2022-09-26T11:34:15.461Z,55.13
2022-09-26T11:37:05.460Z,60.05
2022-09-26T11:39:44.864Z,83.75
2022-09-26T11:42:24.858Z,44.47
2022-09-26T11:44:58.543Z,43.50
2022-09-26T11:47:58.727Z,49.72
2022-09-26T11:50:40.944Z,30.55
2022-09-26T11:53:19.291Z,28.67
2022-09-26T11:55:57.452Z,21.02
2022-09-26T11:58:33.627Z,21.10
2022-09-26T12:01:13.166Z,31.00
2022-09-26T12:03:56.120Z,15.07
2022-09-26T12:06:33.423Z,38.47
2022-09-26T12:09:27.976Z,131.43
2022-09-26T12:12:03.798Z,163.38
2022-09-26T12:14:44.181Z,135.95
2022-09-26T12:17:19.727Z,59.65
2022-09-26T12:19:55.778Z,24.10
2022-09-26T12:22:31.894Z,86.15
2022-09-26T12:25:19.380Z,5.45
2022-09-26T12:27:53.097Z,5.97
2022-09-26T12:30:23.147Z,7.88
2022-09-26T12:33:04.602Z,5.63
2022-09-26T12:35:49.475Z,4.82
2022-09-26T12:38:38.156Z,76.10
2022-09-26T12:41:20.025Z,109.70
2022-09-26T12:44:13.431Z,104.07
2022-09-26T12:46:54.837Z,121.03
2022-09-26T12:49:35.262Z,127.68
2022-09-26T12:52:11.983Z,86.72
2022-09-26T12:54:50.677Z,16.27
2022-09-26T12:57:27.873Z,26.52
2022-09-26T13:00:20.285Z,16.65
2022-09-26T13:03:09.865Z,15.90
2022-09-26T13:06:10.947Z,13.82
2022-09-26T13:08:47.985Z,36.42
2022-09-26T13:11:21.538Z,101.90
2022-09-26T13:13:59.204Z,118.10
2022-09-26T13:16:34.189Z,139.60
2022-09-26T13:19:07.183Z,103.53
2022-09-26T13:21:45.059Z,117.38
2022-09-26T13:24:18.576Z,120.20
2022-09-26T13:26:50.710Z,69.75
2022-09-26T13:29:21.998Z,114.47
2022-09-26T13:31:58.834Z,130.10
2022-09-26T13:34:34.646Z,127.22
2022-09-26T13:37:04.509Z,145.75
2022-09-26T13:39:35.345Z,146.95
2022-09-26T13:42:07.849Z,145.82
2022-09-26T13:44:49.095Z,128.32
2022-09-26T13:47:21.587Z,106.40
2022-09-26T13:49:55.341Z,5.32
2022-09-26T13:52:35.264Z,8.80
2022-09-26T13:55:05.582Z,14.70
2022-09-26T13:57:39.040Z,5.22
2022-09-26T14:00:41.211Z,4.63
2022-09-26T14:03:42.317Z,5.47
2022-09-26T14:06:29.419Z,4.78
2022-09-26T14:09:29.516Z,5.90
2022-09-26T14:12:34.273Z,9.40
2022-09-26T14:15:20.856Z,13.52
2022-09-26T14:18:06.881Z,5.63
2022-09-26T14:20:53.426Z,6.47
2022-09-26T14:23:39.892Z,21.98
2022-09-26T14:26:14.353Z,13.93
2022-09-26T14:28:51.372Z,25.50
2022-09-26T14:31:34.494Z,125.45
2022-09-26T14:34:15.464Z,121.70
2022-09-26T14:36:44.700Z,74.85
2022-09-26T14:39:26.155Z,111.50
2022-09-26T14:41:55.939Z,142.73
2022-09-26T14:44:25.955Z,127.05
2022-09-26T14:46:54.876Z,155.13
2022-09-26T14:49:25.127Z,147.60
2022-09-26T14:52:00.391Z,155.63
2022-09-26T14:54:32.148Z,159.07
2022-09-26T14:57:03.419Z,154.13
2022-09-26T14:59:43.475Z,173.02
2022-09-26T15:02:28.695Z,195.20
2022-09-26T15:05:23.626Z,166.63
2022-09-26T15:07:53.402Z,163.85
2022-09-26T15:10:25.144Z,163.80
2022-09-26T15:13:04.594Z,160.13
2022-09-26T15:15:40.646Z,149.75
2022-09-26T15:18:12.929Z,142.35
2022-09-26T15:20:42.208Z,162.07
2022-09-26T15:23:21.654Z,175.57
2022-09-26T15:25:50.545Z,107.93
2022-09-26T15:28:22.503Z,129.20
2022-09-26T15:30:50.952Z,124.68
2022-09-26T15:33:19.089Z,162.55
2022-09-26T15:35:54.149Z,164.77
2022-09-26T15:38:22.144Z,164.65
2022-09-26T15:41:01.500Z,137.75
2022-09-26T15:43:34.353Z,114.13
2022-09-26T15:46:07.339Z,63.90
2022-09-26T15:48:44.103Z,78.40
2022-09-26T15:51:14.842Z,80.93
2022-09-26T15:53:45.936Z,56.67
2022-09-26T15:56:18.332Z,90.68
2022-09-26T15:58:49.533Z,61.03
2022-09-26T16:01:19.093Z,127.78
2022-09-26T16:03:57.364Z,125.53
2022-09-26T16:06:29.091Z,104.80
2022-09-26T16:09:00.556Z,124.63
2022-09-26T16:11:29.305Z,130.25
2022-09-26T16:13:58.707Z,142.90
2022-09-26T16:16:30.121Z,133.18
2022-09-26T16:19:00.543Z,145.52
2022-09-26T16:21:32.123Z,170.65
2022-09-26T16:24:02.688Z,161.38
2022-09-26T16:26:43.197Z,173.57
2022-09-26T16:29:12.829Z,156.30
2022-09-26T16:31:47.591Z,151.15
2022-09-26T16:34:23.378Z,150.27
2022-09-26T16:36:51.896Z,155.35
2022-09-26T16:39:24.516Z,159.65
2022-09-26T16:42:02.214Z,123.25
2022-09-26T16:44:35.773Z,134.27
2022-09-26T16:47:05.735Z,147.93
2022-09-26T16:49:46.400Z,154.68
2022-09-26T16:52:28.581Z,163.27
2022-09-26T16:54:57.380Z,163.57
2022-09-26T16:57:28.086Z,162.27
2022-09-26T17:00:19.717Z,145.48
2022-09-26T17:02:46.722Z,59.97
2022-09-26T17:05:19.669Z,136.55
2022-09-26T17:07:49.471Z,120.10
2022-09-26T17:10:18.314Z,31.65
2022-09-26T17:12:51.595Z,16.20
2022-09-26T17:15:24.393Z,30.60
2022-09-26T17:17:54.259Z,34.13
2022-09-26T17:20:23.626Z,42.65
2022-09-26T17:22:51.890Z,8.40
2022-09-26T17:25:20.019Z,45.85
2022-09-26T17:27:50.141Z,77.47
2022-09-26T17:30:20.416Z,104.68
2022-09-26T17:32:51.026Z,56.05
2022-09-26T17:35:24.173Z,52.67
2022-09-26T17:37:52.583Z,39.20
2022-09-26T17:40:24.325Z,3.42
2022-09-26T17:42:55.396Z,3.67
2022-09-26T17:45:29.046Z,3.10
2022-09-26T17:47:59.255Z,7.18
2022-09-26T17:50:29.475Z,9.52
2022-09-26T17:52:58.100Z,7.60
2022-09-26T17:55:27.161Z,11.48
2022-09-26T17:57:55.656Z,8.70
2022-09-26T18:00:25.399Z,16.63
2022-09-26T18:02:56.409Z,34.10
2022-09-26T18:05:26.671Z,36.55
2022-09-26T18:07:56.957Z,13.18
2022-09-26T18:10:30.344Z,4.88
2022-09-26T18:13:00.383Z,3.17
2022-09-26T18:15:30.749Z,4.28
2022-09-26T18:18:00.526Z,3.50
2022-09-26T18:20:34.340Z,4.03
2022-09-26T18:23:02.927Z,4.05
2022-09-26T18:25:30.866Z,3.25
2022-09-26T18:28:08.177Z,4.03
2022-09-26T18:30:39.315Z,5.03
2022-09-26T18:33:07.344Z,53.00
2022-09-26T18:35:35.509Z,66.65
2022-09-26T18:38:03.732Z,82.80
2022-09-26T18:40:31.799Z,120.28
2022-09-26T18:42:59.889Z,121.05
2022-09-26T18:45:30.662Z,113.45
2022-09-26T18:47:59.928Z,95.60
2022-09-26T18:50:34.309Z,104.53
2022-09-26T18:53:02.201Z,119.57
2022-09-26T18:55:47.642Z,126.65
2022-09-26T18:58:27.862Z,130.20
2022-09-26T19:00:57.724Z,138.50
2022-09-26T19:03:30.317Z,134.45
2022-09-26T19:06:02.984Z,138.80
2022-09-26T19:08:35.221Z,141.07
2022-09-26T19:11:06.655Z,134.02
2022-09-26T19:13:34.596Z,139.98
2022-09-26T19:16:02.961Z,140.27
2022-09-26T19:18:32.334Z,150.88
2022-09-26T19:21:00.475Z,130.57
2022-09-26T19:23:31.618Z,116.97
2022-09-26T19:25:59.904Z,113.63
2022-09-26T19:28:29.664Z,119.43
2022-09-26T19:30:57.665Z,126.90
2022-09-26T19:33:25.806Z,131.23
2022-09-26T19:35:55.171Z,133.52
2022-09-26T19:38:24.454Z,124.22
2022-09-26T19:40:53.748Z,122.85
2022-09-26T19:43:22.578Z,128.57
2022-09-26T19:45:52.327Z,119.68
2022-09-26T19:48:23.994Z,115.35
2022-09-26T19:50:52.545Z,91.38
2022-09-26T19:53:23.945Z,90.75
2022-09-26T19:55:52.277Z,100.88
2022-09-26T19:58:22.538Z,120.70
2022-09-26T20:00:52.465Z,122.32
2022-09-26T20:03:22.183Z,108.55
2022-09-26T20:05:50.680Z,111.78
2022-09-26T20:08:20.521Z,96.53
2022-09-26T20:10:49.866Z,119.20
2022-09-26T20:13:18.282Z,111.95
2022-09-26T20:15:46.764Z,125.93
2022-09-26T20:18:18.064Z,114.78
2022-09-26T20:20:48.549Z,90.57
2022-09-26T20:23:19.837Z,68.53
2022-09-26T20:25:49.108Z,43.05
2022-09-26T20:28:16.997Z,28.42
2022-09-26T20:30:55.458Z,37.03
2022-09-26T20:33:24.786Z,41.22
2022-09-26T20:35:57.779Z,44.80
2022-09-26T20:38:31.889Z,58.97
2022-09-26T20:41:03.264Z,97.22
2022-09-26T20:43:33.849Z,100.43
2022-09-26T20:46:04.087Z,115.75
2022-09-26T20:48:34.123Z,127.80
2022-09-26T20:51:02.135Z,127.82
2022-09-26T20:53:30.130Z,107.05
2022-09-26T20:55:57.976Z,116.22
2022-09-26T20:58:27.273Z,113.75
2022-09-26T21:00:55.279Z,72.25
2022-09-26T21:03:25.730Z,46.28
2022-09-26T21:05:53.666Z,44.63
2022-09-26T21:08:26.536Z,60.33
2022-09-26T21:10:54.437Z,59.15
2022-09-26T21:13:22.693Z,74.22
2022-09-26T21:15:52.889Z,85.97
2022-09-26T21:18:24.813Z,81.85
2022-09-26T21:20:53.205Z,52.95
2022-09-26T21:23:22.493Z,71.55
2022-09-26T21:25:50.448Z,64.97
2022-09-26T21:28:26.718Z,59.03
2022-09-26T21:30:58.606Z,60.78
2022-09-26T21:33:26.881Z,67.55
2022-09-26T21:35:54.769Z,52.60
2022-09-26T21:38:22.734Z,53.30
2022-09-26T21:40:54.474Z,57.45
2022-09-26T21:43:24.930Z,53.53
2022-09-26T21:45:52.893Z,42.65
2022-09-26T21:48:22.235Z,30.23
2022-09-26T21:50:57.443Z,4.63
2022-09-26T21:53:28.210Z,12.98
2022-09-26T21:55:58.530Z,59.90
2022-09-26T21:58:31.690Z,28.90
2022-09-26T22:00:59.574Z,61.17
2022-09-26T22:03:28.913Z,27.52
2022-09-26T22:05:57.034Z,31.40
2022-09-26T22:08:25.280Z,15.43
2022-09-26T22:10:53.561Z,38.13
2022-09-26T22:13:21.725Z,5.57
2022-09-26T22:15:49.973Z,10.38
2022-09-26T22:18:17.864Z,14.75
2022-09-26T22:20:47.218Z,31.00
2022-09-26T22:23:15.458Z,36.08
2022-09-26T22:25:43.368Z,7.40
2022-09-26T22:28:11.212Z,12.15
2022-09-26T22:30:40.450Z,33.47
2022-09-26T22:33:08.421Z,26.83
2022-09-26T22:35:36.678Z,71.97
2022-09-26T22:38:06.297Z,101.60
2022-09-26T22:40:34.296Z,52.15
2022-09-26T22:43:02.154Z,65.53
2022-09-26T22:45:30.433Z,107.13
2022-09-26T22:47:58.261Z,64.85
2022-09-26T22:50:26.305Z,97.40
2022-09-26T22:52:54.227Z,99.15
2022-09-26T22:55:23.502Z,92.40
2022-09-26T22:57:52.084Z,85.30
2022-09-26T23:00:20.099Z,73.50
2022-09-26T23:02:48.006Z,79.70
2022-09-26T23:05:16.040Z,64.82
2022-09-26T23:07:43.908Z,80.47
2022-09-26T23:10:12.257Z,111.25
2022-09-26T23:12:42.262Z,112.25
2022-09-26T23:15:11.266Z,116.13
2022-09-26T23:17:39.608Z,120.20
2022-09-26T23:20:08.553Z,121.65
2022-09-26T23:22:36.483Z,131.07
2022-09-26T23:25:04.381Z,120.32
2022-09-26T23:27:32.226Z,119.93
2022-09-26T23:30:01.777Z,117.90
2022-09-26T23:32:29.719Z,104.25
2022-09-26T23:34:57.660Z,85.10
2022-09-26T23:37:25.556Z,99.25
2022-09-26T23:39:53.598Z,98.53
2022-09-26T23:42:21.683Z,118.45
2022-09-26T23:44:50.223Z,104.95
2022-09-26T23:47:19.514Z,117.18
2022-09-26T23:49:47.498Z,124.53
2022-09-26T23:52:19.081Z,105.47
2022-09-26T23:54:47.201Z,90.63
2022-09-26T23:57:15.057Z,63.05
2022-09-26T23:59:42.862Z,114.15
